createdAt,value
2023-02-18T00:02:32.930Z,9.31
2023-02-18T00:07:36.611Z,9.43
2023-02-18T00:12:42.506Z,9.58
2023-02-18T00:17:44.140Z,9.69
2023-02-18T00:22:45.764Z,9.80
2023-02-18T00:27:47.465Z,9.93
2023-02-18T00:32:49.555Z,10.04
2023-02-18T00:37:53.155Z,10.10
2023-02-18T00:42:54.839Z,10.19
2023-02-18T00:47:56.739Z,10.22
2023-02-18T00:52:58.403Z,10.05
2023-02-18T00:58:00.104Z,9.70
2023-02-18T01:03:01.927Z,9.39
2023-02-18T01:08:05.073Z,9.21
2023-02-18T01:13:06.760Z,9.03
2023-02-18T01:18:09.632Z,9.02
2023-02-18T01:23:12.276Z,8.99
2023-02-18T01:28:15.030Z,8.98
2023-02-18T01:33:16.695Z,9.01
2023-02-18T01:38:18.387Z,9.00
2023-02-18T01:43:21.081Z,8.92
2023-02-18T01:48:47.840Z,8.77
2023-02-18T01:53:56.674Z,8.60
2023-02-18T01:59:01.568Z,8.40
2023-02-18T02:04:03.674Z,8.25
2023-02-18T02:09:10.648Z,8.10
2023-02-18T02:14:27.740Z,7.96
2023-02-18T02:19:42.418Z,7.81
2023-02-18T02:24:59.492Z,7.70
2023-02-18T02:30:27.571Z,7.57
2023-02-18T02:35:48.755Z,7.43
2023-02-18T02:41:19.198Z,7.31
2023-02-18T02:46:31.512Z,7.26
2023-02-18T02:51:47.138Z,7.26
2023-02-18T02:56:49.489Z,7.20
2023-02-18T03:02:02.986Z,7.16
2023-02-18T03:07:26.167Z,7.14
2023-02-18T03:12:46.636Z,7.13
2023-02-18T03:17:58.357Z,7.12
2023-02-18T03:23:04.456Z,7.11
2023-02-18T03:28:12.558Z,7.10
2023-02-18T03:33:20.708Z,7.11
2023-02-18T03:38:35.362Z,7.14
2023-02-18T03:43:37.072Z,7.13
2023-02-18T03:48:38.782Z,7.08
2023-02-18T03:53:40.685Z,7.00
2023-02-18T03:58:42.321Z,7.10
2023-02-18T04:03:44.044Z,7.13
2023-02-18T04:08:45.900Z,7.07
2023-02-18T04:13:47.555Z,6.93
2023-02-18T04:18:49.187Z,6.76
2023-02-18T04:23:50.861Z,6.55
2023-02-18T04:28:52.494Z,6.45
2023-02-18T04:33:54.192Z,6.45
2023-02-18T04:38:55.888Z,6.54
2023-02-18T04:43:59.642Z,6.60
2023-02-18T04:49:01.311Z,6.54
2023-02-18T04:54:03.939Z,6.48
2023-02-18T04:59:05.764Z,6.36
2023-02-18T05:04:07.495Z,6.25
2023-02-18T05:09:10.201Z,6.18
2023-02-18T05:14:11.909Z,6.14
2023-02-18T05:19:16.971Z,6.20
2023-02-18T05:24:18.665Z,6.21
2023-02-18T05:29:20.321Z,6.22
2023-02-18T05:34:22.044Z,6.23
2023-02-18T05:39:23.817Z,6.20
2023-02-18T05:44:31.378Z,6.16
2023-02-18T05:49:35.173Z,6.25
2023-02-18T05:54:37.702Z,6.37
2023-02-18T05:59:39.411Z,6.41
2023-02-18T06:04:41.502Z,6.50
2023-02-18T06:09:43.195Z,6.62
2023-02-18T06:14:45.210Z,6.79
2023-02-18T06:19:47.005Z,6.88
2023-02-18T06:24:48.640Z,6.92
2023-02-18T06:29:50.364Z,7.01
2023-02-18T06:34:52.012Z,7.14
2023-02-18T06:39:53.707Z,7.32
2023-02-18T06:44:55.316Z,7.46
2023-02-18T06:49:57.051Z,7.57
2023-02-18T06:54:58.975Z,7.66
2023-02-18T07:00:01.889Z,7.69
2023-02-18T07:05:03.864Z,7.70
2023-02-18T07:10:06.757Z,7.70
2023-02-18T07:15:09.061Z,7.73
2023-02-18T07:20:10.922Z,7.85
2023-02-18T07:25:13.096Z,7.91
2023-02-18T07:30:15.379Z,7.95
2023-02-18T07:35:17.502Z,7.93
2023-02-18T07:40:22.992Z,7.91
2023-02-18T07:45:25.111Z,7.94
2023-02-18T07:50:26.989Z,7.97
2023-02-18T07:55:58.649Z,7.96
2023-02-18T08:01:00.823Z,7.96
2023-02-18T08:06:04.557Z,7.97
2023-02-18T08:11:18.550Z,7.96
2023-02-18T08:16:21.894Z,7.97
2023-02-18T08:21:25.532Z,7.98
2023-02-18T08:26:27.666Z,7.97
2023-02-18T08:31:30.829Z,7.99
2023-02-18T08:36:32.575Z,8.00
2023-02-18T08:41:34.344Z,8.06
2023-02-18T08:46:36.548Z,8.12
2023-02-18T08:51:38.920Z,8.16
2023-02-18T08:56:40.763Z,8.21
2023-02-18T09:01:42.664Z,8.28
2023-02-18T09:06:44.393Z,8.32
2023-02-18T09:11:46.397Z,8.35
2023-02-18T09:16:48.065Z,8.37
2023-02-18T09:21:50.311Z,8.40
2023-02-18T09:26:52.015Z,8.46
2023-02-18T09:31:53.885Z,8.58
2023-02-18T09:36:55.656Z,8.69
2023-02-18T09:42:17.685Z,8.75
2023-02-18T09:47:30.890Z,8.75
2023-02-18T09:52:38.645Z,8.61
2023-02-18T09:57:45.116Z,8.51
2023-02-18T10:02:59.150Z,8.49
2023-02-18T10:08:07.846Z,8.41
2023-02-18T10:13:15.621Z,8.30
2023-02-18T10:23:42.376Z,7.92
2023-02-18T10:28:45.381Z,7.60
2023-02-18T10:33:55.476Z,7.34
2023-02-18T10:39:23.306Z,7.13
2023-02-18T10:44:43.999Z,6.88
2023-02-18T10:49:51.658Z,6.57
2023-02-18T10:55:04.578Z,6.33
2023-02-18T11:00:24.122Z,6.19
2023-02-18T11:05:28.051Z,6.06
2023-02-18T11:10:34.125Z,5.99
2023-02-18T11:15:36.753Z,5.91
2023-02-18T11:20:39.487Z,5.91
2023-02-18T11:25:52.580Z,5.97
2023-02-18T11:30:58.365Z,6.05
2023-02-18T11:36:13.345Z,5.94
2023-02-18T11:41:18.969Z,5.95
2023-02-18T11:46:24.664Z,6.01
2023-02-18T11:51:38.915Z,6.10
2023-02-18T11:56:40.690Z,6.31
2023-02-18T12:01:57.427Z,6.52
2023-02-18T12:07:05.500Z,6.77
2023-02-18T12:12:16.487Z,6.99
2023-02-18T12:17:33.479Z,7.20
2023-02-18T12:22:56.739Z,7.43
2023-02-18T12:28:21.460Z,7.61
2023-02-18T12:34:01.977Z,7.60
2023-02-18T12:39:11.393Z,7.61
2023-02-18T12:44:38.183Z,7.63
2023-02-18T12:50:12.863Z,7.67
2023-02-18T12:55:52.068Z,7.75
2023-02-18T13:00:56.542Z,7.71
2023-02-18T13:06:17.472Z,7.53
2023-02-18T13:11:39.660Z,7.67
2023-02-18T13:16:44.857Z,7.65
2023-02-18T13:21:49.909Z,7.63
2023-02-18T13:26:58.695Z,7.61
2023-02-18T13:32:33.449Z,7.56
2023-02-18T13:37:43.792Z,7.51
2023-02-18T13:42:45.662Z,7.47
2023-02-18T13:47:49.882Z,7.46
2023-02-18T13:52:52.654Z,7.44
2023-02-18T13:57:55.739Z,7.39
2023-02-18T14:03:00.391Z,7.41
2023-02-18T14:08:34.590Z,7.39
2023-02-18T14:13:40.834Z,7.42
2023-02-18T14:18:42.661Z,7.52
2023-02-18T14:23:59.613Z,7.59
2023-02-18T14:29:06.813Z,7.55
2023-02-18T14:34:14.690Z,7.43
2023-02-18T14:39:37.146Z,7.43
2023-02-18T14:44:52.845Z,7.45
2023-02-18T14:49:59.848Z,7.50
2023-02-18T14:55:04.022Z,7.48
2023-02-18T15:00:07.130Z,7.44
2023-02-18T15:05:16.495Z,7.40
2023-02-18T15:10:19.611Z,7.38
2023-02-18T15:15:26.465Z,7.40
2023-02-18T15:20:42.081Z,7.43
2023-02-18T15:25:50.340Z,7.48
2023-02-18T15:30:52.605Z,7.57
2023-02-18T15:36:06.384Z,7.69
2023-02-18T15:41:11.946Z,7.75
2023-02-18T15:46:14.561Z,7.82
2023-02-18T15:51:22.498Z,7.91
2023-02-18T15:56:34.066Z,8.02
2023-02-18T16:01:36.348Z,8.14
2023-02-18T16:06:46.156Z,8.25
2023-02-18T16:11:52.120Z,8.34
2023-02-18T16:16:59.657Z,8.47
2023-02-18T16:22:18.574Z,8.59
2023-02-18T16:27:20.580Z,8.65
2023-02-18T16:32:22.570Z,8.69
2023-02-18T16:37:39.520Z,8.72
2023-02-18T16:42:41.174Z,8.77
2023-02-18T16:47:47.324Z,8.78
2023-02-18T16:52:50.634Z,8.79
2023-02-18T16:57:52.822Z,8.83
2023-02-18T17:02:58.292Z,8.88
2023-02-18T17:08:14.437Z,8.87
2023-02-18T17:13:21.745Z,8.90
2023-02-18T17:18:24.403Z,8.97
2023-02-18T17:23:26.284Z,8.99
2023-02-18T17:28:27.994Z,8.95
2023-02-18T17:33:29.652Z,8.89
2023-02-18T17:38:34.519Z,8.83
2023-02-18T17:43:37.389Z,8.83
2023-02-18T17:48:40.259Z,8.89
2023-02-18T17:53:41.907Z,8.94
2023-02-18T17:58:43.973Z,8.97
2023-02-18T18:03:45.690Z,9.00
2023-02-18T18:08:48.263Z,9.00
2023-02-18T18:13:50.543Z,9.05
2023-02-18T18:18:52.624Z,9.05
2023-02-18T18:23:54.285Z,9.02
2023-02-18T18:28:56.021Z,9.04
2023-02-18T18:33:57.678Z,9.08
2023-02-18T18:38:59.279Z,9.09
2023-02-18T18:44:01.123Z,9.11
2023-02-18T18:49:02.775Z,9.10
2023-02-18T18:54:04.628Z,9.13
2023-02-18T18:59:08.472Z,9.15
2023-02-18T19:04:10.002Z,9.16
2023-02-18T19:09:11.781Z,9.17
2023-02-18T19:14:14.193Z,9.17
2023-02-18T19:19:16.189Z,9.24
2023-02-18T19:24:17.805Z,9.25
2023-02-18T19:29:23.252Z,9.22
2023-02-18T19:34:24.980Z,9.19
2023-02-18T19:39:26.825Z,9.22
2023-02-18T19:44:33.749Z,9.20
2023-02-18T19:49:35.459Z,9.24
2023-02-18T19:54:37.134Z,9.25
2023-02-18T19:59:39.713Z,9.25
2023-02-18T20:04:42.174Z,9.25
2023-02-18T20:09:44.497Z,9.26
2023-02-18T20:14:46.409Z,9.24
2023-02-18T20:19:48.357Z,9.25
2023-02-18T20:24:50.394Z,9.26
2023-02-18T20:29:52.172Z,9.28
2023-02-18T20:34:53.848Z,9.27
2023-02-18T20:39:55.520Z,9.28
2023-02-18T20:44:57.341Z,9.28
2023-02-18T20:49:59.147Z,9.29
2023-02-18T20:55:01.000Z,9.28
2023-02-18T21:00:04.386Z,9.20
2023-02-18T21:05:06.349Z,9.06
2023-02-18T21:10:08.355Z,8.88
2023-02-18T21:15:10.201Z,8.61
2023-02-18T21:20:11.874Z,8.22
2023-02-18T21:25:13.571Z,7.74
2023-02-18T21:30:15.329Z,7.38
2023-02-18T21:35:17.667Z,7.13
2023-02-18T21:40:19.553Z,6.96
2023-02-18T21:45:21.511Z,6.81
2023-02-18T21:50:23.437Z,6.72
2023-02-18T21:55:26.227Z,6.67
2023-02-18T22:00:28.036Z,6.67
2023-02-18T22:05:30.953Z,6.63
2023-02-18T22:10:33.567Z,6.60
2023-02-18T22:15:38.478Z,6.56
2023-02-18T22:20:40.915Z,6.54
2023-02-18T22:25:42.607Z,6.52
2023-02-18T22:30:44.314Z,6.51
2023-02-18T22:35:45.999Z,6.49
2023-02-18T22:40:50.447Z,6.48
2023-02-18T22:45:52.410Z,6.45
2023-02-18T22:50:54.278Z,6.44
2023-02-18T22:56:00.733Z,6.43
2023-02-18T23:01:03.571Z,6.39
2023-02-18T23:06:06.092Z,6.38
2023-02-18T23:11:12.182Z,6.39
2023-02-18T23:16:15.860Z,6.36
2023-02-18T23:21:17.576Z,6.32
2023-02-18T23:26:21.566Z,6.30
2023-02-18T23:31:25.911Z,6.30
2023-02-18T23:36:29.951Z,6.29
2023-02-18T23:41:32.074Z,6.25
2023-02-18T23:46:34.906Z,6.17
2023-02-18T23:51:36.653Z,6.20
2023-02-18T23:56:38.991Z,6.18
